createdAt,value
2022-09-27T00:00:02.631Z,10.53
2022-09-27T00:01:02.651Z,10.54
2022-09-27T00:02:02.671Z,10.54
2022-09-27T00:03:02.635Z,10.56
2022-09-27T00:04:02.567Z,10.54
2022-09-27T00:05:02.557Z,10.54
2022-09-27T00:06:02.546Z,10.54
2022-09-27T00:07:02.539Z,10.56
2022-09-27T00:08:02.547Z,10.56
2022-09-27T00:09:02.517Z,10.56
2022-09-27T00:10:02.497Z,10.54
2022-09-27T00:11:02.487Z,10.54
2022-09-27T00:12:02.477Z,10.53
2022-09-27T00:13:02.469Z,10.54
2022-09-27T00:14:02.480Z,10.57
2022-09-27T00:15:03.215Z,10.59
2022-09-27T00:16:02.459Z,10.57
2022-09-27T00:17:02.425Z,10.59
2022-09-27T00:18:02.408Z,10.59
2022-09-27T00:19:02.397Z,10.57
2022-09-27T00:20:02.407Z,10.57
2022-09-27T00:21:02.377Z,10.57
2022-09-27T00:22:02.361Z,10.56
2022-09-27T00:23:02.357Z,10.56
2022-09-27T00:24:02.337Z,10.54
2022-09-27T00:25:02.326Z,10.56
2022-09-27T00:26:02.397Z,10.57
2022-09-27T00:27:02.306Z,10.57
2022-09-27T00:28:02.298Z,10.56
2022-09-27T00:29:02.286Z,10.56
2022-09-27T00:30:02.281Z,10.56
2022-09-27T00:31:02.352Z,10.54
2022-09-27T00:32:02.271Z,10.53
2022-09-27T00:33:02.238Z,10.53
2022-09-27T00:34:02.226Z,10.53
2022-09-27T00:35:02.223Z,10.54
2022-09-27T00:36:02.201Z,10.53
2022-09-27T00:37:02.215Z,10.53
2022-09-27T00:38:02.177Z,10.51
2022-09-27T00:39:02.168Z,10.53
2022-09-27T00:40:02.159Z,10.51
2022-09-27T00:41:02.219Z,10.53
2022-09-27T00:42:02.137Z,10.51
2022-09-27T00:43:02.151Z,10.51
2022-09-27T00:44:02.107Z,10.49
2022-09-27T00:45:02.097Z,10.49
2022-09-27T00:46:02.144Z,10.49
2022-09-27T00:47:02.081Z,10.51
2022-09-27T00:48:02.070Z,10.51
2022-09-27T00:49:02.077Z,10.51
2022-09-27T00:50:02.049Z,10.51
2022-09-27T00:51:02.037Z,10.48
2022-09-27T00:52:02.018Z,10.48
2022-09-27T00:53:02.009Z,10.49
2022-09-27T00:54:01.996Z,10.49
2022-09-27T00:55:02.007Z,10.48
2022-09-27T00:56:01.968Z,10.48
2022-09-27T00:57:01.967Z,10.48
2022-09-27T00:58:01.952Z,10.48
2022-09-27T00:59:01.945Z,10.46
2022-09-27T01:00:01.981Z,10.48
2022-09-27T01:01:02.226Z,10.48
2022-09-27T01:02:01.905Z,10.48
2022-09-27T01:03:01.943Z,10.48
2022-09-27T01:04:01.878Z,10.48
2022-09-27T01:05:01.869Z,10.48
2022-09-27T01:06:01.862Z,10.48
2022-09-27T01:07:01.867Z,10.46
2022-09-27T01:08:01.828Z,10.46
2022-09-27T01:09:01.833Z,10.46
2022-09-27T01:10:01.811Z,10.44
2022-09-27T01:11:01.807Z,10.46
2022-09-27T01:12:01.809Z,10.44
2022-09-27T01:13:01.777Z,10.44
2022-09-27T01:14:01.769Z,10.42
2022-09-27T01:15:01.757Z,10.42
2022-09-27T01:16:01.794Z,10.40
2022-09-27T01:17:01.737Z,10.41
2022-09-27T01:18:01.742Z,10.41
2022-09-27T01:19:01.708Z,10.41
2022-09-27T01:20:01.697Z,10.41
2022-09-27T01:21:01.688Z,10.40
2022-09-27T01:22:01.677Z,10.40
2022-09-27T01:23:01.668Z,10.38
2022-09-27T01:24:01.669Z,10.38
2022-09-27T01:25:01.647Z,10.40
2022-09-27T01:26:01.629Z,10.40
2022-09-27T01:27:01.619Z,10.40
2022-09-27T01:28:01.608Z,10.40
2022-09-27T01:29:01.597Z,10.38
2022-09-27T01:30:01.599Z,10.35
2022-09-27T01:31:01.637Z,10.35
2022-09-27T01:32:01.560Z,10.35
2022-09-27T01:33:01.556Z,10.34
2022-09-27T01:34:01.541Z,10.34
2022-09-27T01:35:01.549Z,10.33
2022-09-27T01:36:01.517Z,10.34
2022-09-27T01:37:01.506Z,10.37
2022-09-27T01:38:01.487Z,10.35
2022-09-27T01:39:01.478Z,10.38
2022-09-27T01:40:01.471Z,10.38
2022-09-27T01:41:01.602Z,10.40
2022-09-27T01:42:01.439Z,10.40
2022-09-27T01:43:01.437Z,10.41
2022-09-27T01:44:01.420Z,10.41
2022-09-27T01:45:01.408Z,10.41
2022-09-27T01:46:01.481Z,10.41
2022-09-27T01:47:01.388Z,10.42
2022-09-27T01:48:01.372Z,10.41
2022-09-27T01:49:01.367Z,10.41
2022-09-27T01:50:01.347Z,10.42
2022-09-27T01:51:01.346Z,10.41
2022-09-27T01:52:01.348Z,10.40
2022-09-27T01:53:01.329Z,10.38
2022-09-27T01:54:01.311Z,10.38
2022-09-27T01:55:01.300Z,10.35
2022-09-27T01:56:01.277Z,10.35
2022-09-27T01:57:01.269Z,10.34
2022-09-27T01:58:01.278Z,10.34
2022-09-27T01:59:01.247Z,10.34
2022-09-27T02:00:01.238Z,10.31
2022-09-27T02:01:01.265Z,10.33
2022-09-27T02:02:01.218Z,10.33
2022-09-27T02:03:01.287Z,10.34
2022-09-27T02:04:01.198Z,10.35
2022-09-27T02:05:01.186Z,10.34
2022-09-27T02:06:01.168Z,10.35
2022-09-27T02:07:01.158Z,10.35
2022-09-27T02:08:01.147Z,10.34
2022-09-27T02:09:01.168Z,10.34
2022-09-27T02:10:01.166Z,10.31
2022-09-27T02:11:01.118Z,10.30
2022-09-27T02:12:01.099Z,10.31
2022-09-27T02:13:01.091Z,10.34
2022-09-27T02:14:01.079Z,10.33
2022-09-27T02:15:01.101Z,10.33
2022-09-27T02:16:01.099Z,10.33
2022-09-27T02:17:01.046Z,10.33
2022-09-27T02:18:01.031Z,10.33
2022-09-27T02:19:01.018Z,10.34
2022-09-27T02:20:01.010Z,10.31
2022-09-27T02:21:01.034Z,10.33
2022-09-27T02:22:00.989Z,10.34
2022-09-27T02:23:00.977Z,10.33
2022-09-27T02:24:00.966Z,10.34
2022-09-27T02:25:00.957Z,10.31
2022-09-27T02:26:00.948Z,10.31
2022-09-27T02:27:00.950Z,10.31
2022-09-27T02:28:00.918Z,10.33
2022-09-27T02:29:00.908Z,10.33
2022-09-27T02:30:00.898Z,10.33
2022-09-27T02:31:00.960Z,10.34
2022-09-27T02:32:00.880Z,10.33
2022-09-27T02:33:00.882Z,10.34
2022-09-27T02:34:00.859Z,10.35
2022-09-27T02:35:00.838Z,10.35
2022-09-27T02:36:00.831Z,10.34
2022-09-27T02:37:00.817Z,10.33
2022-09-27T02:38:00.808Z,10.34
2022-09-27T02:39:00.812Z,10.34
2022-09-27T02:40:00.782Z,10.35
2022-09-27T02:41:00.829Z,10.37
2022-09-27T02:42:00.760Z,10.37
2022-09-27T02:43:00.753Z,10.34
2022-09-27T02:44:00.740Z,10.34
2022-09-27T02:45:00.739Z,10.33
2022-09-27T02:46:00.782Z,10.34
2022-09-27T02:47:00.699Z,10.34
2022-09-27T02:48:00.689Z,10.31
2022-09-27T02:49:00.675Z,10.33
2022-09-27T02:50:00.690Z,10.31
2022-09-27T02:51:00.657Z,10.33
2022-09-27T02:52:00.647Z,10.33
2022-09-27T02:53:00.629Z,10.33
2022-09-27T02:54:00.628Z,10.33
2022-09-27T02:55:00.607Z,10.35
2022-09-27T02:56:00.618Z,10.35
2022-09-27T02:57:00.588Z,10.38
2022-09-27T02:58:00.590Z,10.38
2022-09-27T02:59:00.570Z,10.40
2022-09-27T03:00:00.565Z,10.41
2022-09-27T03:01:00.580Z,10.41
2022-09-27T03:02:00.749Z,10.41
2022-09-27T03:03:00.557Z,10.44
2022-09-27T03:04:00.509Z,10.41
2022-09-27T03:05:00.490Z,10.40
2022-09-27T03:06:00.490Z,10.38
2022-09-27T03:07:00.521Z,10.38
2022-09-27T03:08:00.460Z,10.37
2022-09-27T03:09:00.458Z,10.34
2022-09-27T03:10:07.484Z,10.34
2022-09-27T03:11:00.424Z,10.37
2022-09-27T03:12:00.416Z,10.35
2022-09-27T03:13:00.424Z,10.37
2022-09-27T03:14:09.158Z,10.35
2022-09-27T03:15:01.394Z,10.34
2022-09-27T03:16:01.701Z,10.34
2022-09-27T03:17:00.481Z,10.34
2022-09-27T03:18:00.346Z,10.33
2022-09-27T03:19:00.365Z,10.34
2022-09-27T03:20:00.330Z,10.33
2022-09-27T03:21:00.322Z,10.34
2022-09-27T03:22:00.313Z,10.34
2022-09-27T03:23:00.288Z,10.34
2022-09-27T03:24:00.296Z,10.31
2022-09-27T03:25:00.312Z,10.33
2022-09-27T03:26:00.261Z,10.33
2022-09-27T03:27:00.245Z,10.33
2022-09-27T03:28:00.235Z,10.33
2022-09-27T03:29:00.225Z,10.33
2022-09-27T03:30:00.222Z,10.31
2022-09-27T03:31:00.283Z,10.31
2022-09-27T03:32:00.227Z,10.31
2022-09-27T03:33:00.245Z,10.33
2022-09-27T03:34:00.165Z,10.28
2022-09-27T03:35:00.155Z,10.26
2022-09-27T03:36:00.145Z,10.30
2022-09-27T03:37:00.157Z,10.28
2022-09-27T03:38:00.115Z,10.30
2022-09-27T03:39:00.114Z,10.30
2022-09-27T03:40:00.138Z,10.31
2022-09-27T03:41:00.900Z,10.30
2022-09-27T03:42:00.097Z,10.31
2022-09-27T03:43:00.094Z,10.28
2022-09-27T03:44:00.069Z,10.28
2022-09-27T03:45:00.034Z,10.26
2022-09-27T03:46:00.086Z,10.25
2022-09-27T03:47:00.020Z,10.22
2022-09-27T03:48:00.007Z,10.20
2022-09-27T03:49:00.015Z,10.17
2022-09-27T03:49:59.985Z,10.16
2022-09-27T03:50:59.990Z,10.17
2022-09-27T03:51:59.976Z,10.16
2022-09-27T03:52:59.949Z,10.13
2022-09-27T03:53:59.936Z,10.12
2022-09-27T03:55:02.135Z,10.10
2022-09-27T03:55:59.921Z,10.12
2022-09-27T03:56:59.898Z,10.09
2022-09-27T03:57:59.893Z,10.04
2022-09-27T03:58:59.885Z,10.04
2022-09-27T03:59:59.898Z,10.04
2022-09-27T04:00:59.899Z,10.02
2022-09-27T04:01:59.849Z,10.05
2022-09-27T04:02:59.908Z,10.04
2022-09-27T04:03:59.835Z,9.99
2022-09-27T04:04:59.809Z,9.99
2022-09-27T04:05:59.816Z,9.99
2022-09-27T04:06:59.785Z,10.01
2022-09-27T04:07:59.776Z,9.99
2022-09-27T04:08:59.757Z,9.98
2022-09-27T04:09:59.755Z,9.95
2022-09-27T04:10:59.743Z,9.97
2022-09-27T04:11:59.747Z,9.95
2022-09-27T04:12:59.725Z,9.95
2022-09-27T04:13:59.708Z,9.94
2022-09-27T04:14:59.716Z,9.94
2022-09-27T04:15:59.714Z,9.91
2022-09-27T04:16:59.751Z,9.91
2022-09-27T04:17:59.668Z,9.91
2022-09-27T04:18:59.649Z,9.91
2022-09-27T04:19:59.634Z,9.87
2022-09-27T04:20:59.627Z,9.87
2022-09-27T04:21:59.614Z,9.89
2022-09-27T04:22:59.623Z,9.86
2022-09-27T04:23:59.595Z,9.86
2022-09-27T04:24:59.575Z,9.87
2022-09-27T04:25:59.565Z,9.86
2022-09-27T04:26:59.554Z,9.86
2022-09-27T04:27:59.545Z,9.84
2022-09-27T04:28:59.554Z,9.83
2022-09-27T04:29:59.525Z,9.84
2022-09-27T04:30:59.586Z,9.84
2022-09-27T04:31:59.505Z,9.84
2022-09-27T04:32:59.485Z,9.86
2022-09-27T04:33:59.476Z,9.87
2022-09-27T04:34:59.485Z,9.86
2022-09-27T04:35:59.455Z,9.86
2022-09-27T04:36:59.435Z,9.86
2022-09-27T04:37:59.435Z,9.86
2022-09-27T04:38:59.415Z,9.87
2022-09-27T04:39:59.407Z,9.84
2022-09-27T04:40:59.473Z,9.84
2022-09-27T04:41:59.386Z,9.84
2022-09-27T04:42:59.366Z,9.84
2022-09-27T04:43:59.635Z,9.86
2022-09-27T04:44:59.345Z,9.86
2022-09-27T04:45:59.375Z,9.84
2022-09-27T04:46:59.370Z,9.84
2022-09-27T04:47:59.315Z,9.86
2022-09-27T04:48:59.314Z,9.84
2022-09-27T04:49:59.295Z,9.83
2022-09-27T04:50:59.285Z,9.84
2022-09-27T04:51:59.273Z,9.84
2022-09-27T04:52:59.276Z,9.87
2022-09-27T04:53:59.245Z,9.86
2022-09-27T04:54:59.233Z,9.86
2022-09-27T04:55:59.225Z,9.86
2022-09-27T04:56:59.206Z,9.86
2022-09-27T04:57:59.215Z,9.87
2022-09-27T04:58:59.206Z,9.91
2022-09-27T04:59:59.194Z,9.91
2022-09-27T05:00:59.214Z,9.89
2022-09-27T05:01:59.155Z,9.91
2022-09-27T05:02:59.209Z,9.89
2022-09-27T05:03:59.135Z,9.87
2022-09-27T05:04:59.135Z,9.87
2022-09-27T05:05:59.105Z,9.86
2022-09-27T05:06:59.085Z,9.86
2022-09-27T05:07:59.085Z,9.86
2022-09-27T05:08:59.075Z,9.86
2022-09-27T05:09:59.064Z,9.86
2022-09-27T05:10:59.068Z,9.82
2022-09-27T05:11:59.036Z,9.82
2022-09-27T05:12:59.025Z,9.82
2022-09-27T05:13:59.015Z,9.82
2022-09-27T05:14:59.008Z,9.83
2022-09-27T05:15:59.065Z,9.83
2022-09-27T05:16:59.046Z,9.82
2022-09-27T05:17:58.986Z,9.82
2022-09-27T05:18:58.954Z,9.80
2022-09-27T05:19:58.945Z,9.80
2022-09-27T05:20:58.937Z,9.80
2022-09-27T05:21:58.930Z,9.80
2022-09-27T05:22:58.923Z,9.80
2022-09-27T05:23:58.904Z,9.79
2022-09-27T05:24:58.887Z,9.79
2022-09-27T05:25:58.876Z,9.77
2022-09-27T05:26:58.865Z,9.77
2022-09-27T05:27:58.876Z,9.76
2022-09-27T05:28:58.843Z,9.76
2022-09-27T05:29:58.835Z,9.76
2022-09-27T05:30:58.843Z,9.74
2022-09-27T05:31:58.805Z,9.74
2022-09-27T05:32:58.798Z,9.76
2022-09-27T05:33:58.804Z,9.77
2022-09-27T05:34:58.774Z,9.77
2022-09-27T05:35:58.765Z,9.77
2022-09-27T05:36:58.764Z,9.80
2022-09-27T05:37:58.748Z,9.79
2022-09-27T05:38:58.755Z,9.77
2022-09-27T05:39:58.725Z,9.79
2022-09-27T05:40:58.754Z,9.77
2022-09-27T05:41:58.695Z,9.79
2022-09-27T05:42:58.675Z,9.79
2022-09-27T05:43:58.675Z,9.79
2022-09-27T05:44:58.676Z,9.77
2022-09-27T05:45:58.716Z,9.77
2022-09-27T05:46:58.635Z,9.76
2022-09-27T05:47:58.625Z,9.76
2022-09-27T05:48:58.634Z,9.77
2022-09-27T05:49:58.625Z,9.76
2022-09-27T05:50:58.629Z,9.77
2022-09-27T05:51:58.590Z,9.77
2022-09-27T05:52:58.599Z,9.76
2022-09-27T05:53:58.600Z,9.77
2022-09-27T05:54:58.545Z,9.79
2022-09-27T05:55:58.595Z,9.80
2022-09-27T05:56:58.545Z,9.80
2022-09-27T05:57:58.531Z,9.80
2022-09-27T05:58:58.496Z,9.82
2022-09-27T05:59:58.508Z,9.83
2022-09-27T06:00:58.475Z,9.84
2022-09-27T06:01:58.573Z,9.83
2022-09-27T06:02:58.566Z,9.86
2022-09-27T06:03:58.477Z,9.86
2022-09-27T06:04:58.434Z,9.89
2022-09-27T06:05:58.435Z,9.91
2022-09-27T06:06:58.418Z,9.92
2022-09-27T06:07:58.425Z,9.89
2022-09-27T06:09:58.419Z,9.91
2022-09-27T06:10:58.357Z,9.92
2022-09-27T06:11:58.385Z,9.92
2022-09-27T06:12:58.354Z,9.91
2022-09-27T06:13:58.365Z,9.94
2022-09-27T06:14:58.329Z,9.92
2022-09-27T06:15:58.309Z,9.95
2022-09-27T06:16:58.323Z,9.92
2022-09-27T06:17:58.315Z,9.95
2022-09-27T06:18:58.267Z,9.95
2022-09-27T06:19:58.321Z,9.97
2022-09-27T06:20:58.247Z,9.98
2022-09-27T06:21:58.245Z,9.97
2022-09-27T06:22:58.235Z,9.95
2022-09-27T06:23:58.227Z,9.95
2022-09-27T06:24:58.242Z,9.97
2022-09-27T06:25:58.205Z,9.95
2022-09-27T06:26:58.177Z,9.97
2022-09-27T06:27:58.190Z,9.95
2022-09-27T06:28:58.162Z,9.94
2022-09-27T06:29:58.155Z,9.99
2022-09-27T06:30:58.242Z,10.02
2022-09-27T06:31:58.151Z,10.05
2022-09-27T06:32:58.111Z,10.07
2022-09-27T06:33:58.106Z,10.09
2022-09-27T06:34:58.085Z,10.09
2022-09-27T06:35:58.107Z,10.09
2022-09-27T06:36:58.066Z,10.07
2022-09-27T06:37:58.046Z,10.10
2022-09-27T06:38:58.075Z,10.12
2022-09-27T06:39:58.054Z,10.15
2022-09-27T06:40:58.128Z,10.16
2022-09-27T06:41:58.038Z,10.19
2022-09-27T06:42:57.996Z,10.20
2022-09-27T06:43:58.020Z,10.20
2022-09-27T06:44:57.975Z,10.19
2022-09-27T06:45:58.040Z,10.22
2022-09-27T06:46:57.974Z,10.22
2022-09-27T06:47:57.956Z,10.25
2022-09-27T06:48:57.976Z,10.26
2022-09-27T06:49:57.934Z,10.28
2022-09-27T06:50:57.970Z,10.26
2022-09-27T06:51:57.916Z,10.31
2022-09-27T06:52:57.886Z,10.33
2022-09-27T06:53:57.903Z,10.38
2022-09-27T06:54:57.855Z,10.35
2022-09-27T06:55:57.846Z,10.38
2022-09-27T06:57:02.241Z,10.42
2022-09-27T06:57:57.824Z,10.41
2022-09-27T06:58:57.834Z,10.41
2022-09-27T06:59:57.853Z,10.41
2022-09-27T07:00:57.815Z,10.44
2022-09-27T07:01:57.840Z,10.44
2022-09-27T07:02:57.776Z,10.46
2022-09-27T07:03:57.756Z,10.46
2022-09-27T07:04:57.746Z,10.46
2022-09-27T07:05:58.024Z,10.42
2022-09-27T07:06:57.727Z,10.44
2022-09-27T07:07:57.732Z,10.42
2022-09-27T07:08:57.725Z,10.42
2022-09-27T07:09:57.683Z,10.44
2022-09-27T07:10:57.677Z,10.42
2022-09-27T07:11:57.700Z,10.44
2022-09-27T07:12:57.657Z,10.44
2022-09-27T07:13:57.637Z,10.44
2022-09-27T07:14:57.625Z,10.42
2022-09-27T07:15:57.606Z,10.42
2022-09-27T07:16:57.657Z,10.40
2022-09-27T07:17:57.639Z,10.41
2022-09-27T07:18:57.586Z,10.40
2022-09-27T07:19:57.715Z,10.40
2022-09-27T07:21:00.275Z,10.42
2022-09-27T07:21:57.546Z,10.44
2022-09-27T07:22:57.582Z,10.46
2022-09-27T07:23:57.578Z,10.41
2022-09-27T07:24:57.505Z,10.38
2022-09-27T07:25:57.497Z,10.40
2022-09-27T07:26:57.497Z,10.41
2022-09-27T07:27:57.505Z,10.41
2022-09-27T07:28:57.496Z,10.44
2022-09-27T07:29:57.458Z,10.48
2022-09-27T07:30:57.533Z,10.51
2022-09-27T07:31:57.426Z,10.53
2022-09-27T07:32:57.424Z,10.56
2022-09-27T07:33:57.429Z,10.60
2022-09-27T07:34:57.418Z,10.63
2022-09-27T07:35:57.387Z,10.67
2022-09-27T07:36:57.426Z,10.71
2022-09-27T07:37:57.391Z,10.76
2022-09-27T07:38:57.389Z,10.84
2022-09-27T07:39:57.368Z,10.87
2022-09-27T07:40:57.413Z,10.94
2022-09-27T07:41:57.378Z,11.00
2022-09-27T07:42:57.307Z,11.07
2022-09-27T07:43:57.300Z,11.12
2022-09-27T07:44:57.285Z,11.19
2022-09-27T07:45:57.312Z,11.25
2022-09-27T07:46:57.288Z,11.35
2022-09-27T07:47:57.246Z,11.30
2022-09-27T07:48:57.246Z,11.32
2022-09-27T07:49:57.233Z,11.40
2022-09-27T07:50:57.217Z,11.43
2022-09-27T07:51:57.199Z,11.47
2022-09-27T07:52:57.221Z,11.51
2022-09-27T07:53:57.178Z,11.57
2022-09-27T07:54:57.176Z,11.80
2022-09-27T07:55:57.155Z,11.94
2022-09-27T07:56:57.146Z,11.88
2022-09-27T07:57:57.144Z,11.94
2022-09-27T07:58:57.186Z,12.00
2022-09-27T07:59:57.117Z,11.94
2022-09-27T08:00:57.177Z,12.04
2022-09-27T08:01:57.123Z,12.00
2022-09-27T08:02:57.076Z,11.91
2022-09-27T08:03:57.073Z,11.94
2022-09-27T08:04:57.067Z,11.88
2022-09-27T08:05:57.036Z,11.78
2022-09-27T08:06:57.037Z,11.77
2022-09-27T08:07:57.017Z,11.75
2022-09-27T08:08:57.047Z,11.72
2022-09-27T08:09:57.037Z,11.62
2022-09-27T08:10:56.989Z,11.57
2022-09-27T08:11:56.978Z,11.60
2022-09-27T08:12:57.001Z,11.70
2022-09-27T08:13:56.947Z,11.83
2022-09-27T08:14:56.948Z,11.88
2022-09-27T08:15:56.947Z,12.06
2022-09-27T08:16:56.915Z,12.15
2022-09-27T08:17:56.907Z,12.31
2022-09-27T08:18:56.909Z,12.37
2022-09-27T08:19:56.886Z,12.49
2022-09-27T08:20:56.867Z,12.45
2022-09-27T08:21:58.923Z,12.42
2022-09-27T08:22:56.881Z,12.46
2022-09-27T08:23:56.836Z,12.40
2022-09-27T08:24:56.843Z,12.42
2022-09-27T08:25:56.810Z,12.47
2022-09-27T08:26:56.799Z,12.46
2022-09-27T08:27:56.812Z,12.49
2022-09-27T08:28:56.802Z,12.55
2022-09-27T08:29:56.820Z,12.47
2022-09-27T08:30:56.762Z,12.43
2022-09-27T08:31:56.770Z,12.43
2022-09-27T08:32:56.745Z,12.37
2022-09-27T08:33:56.737Z,12.36
2022-09-27T08:34:56.723Z,12.32
2022-09-27T08:35:56.697Z,12.36
2022-09-27T08:36:56.690Z,12.36
2022-09-27T08:37:56.682Z,12.24
2022-09-27T08:38:56.690Z,12.21
2022-09-27T08:39:56.657Z,12.17
2022-09-27T08:40:56.669Z,12.07
2022-09-27T08:41:56.642Z,11.99
2022-09-27T08:42:56.623Z,11.91
2022-09-27T08:43:56.619Z,11.86
2022-09-27T08:45:00.959Z,11.81
2022-09-27T08:45:57.631Z,11.70
2022-09-27T08:46:56.569Z,11.63
2022-09-27T08:47:56.560Z,11.51
2022-09-27T08:48:56.550Z,11.45
2022-09-27T08:49:56.530Z,11.44
2022-09-27T08:50:56.553Z,11.48
2022-09-27T08:51:56.514Z,11.54
2022-09-27T08:52:57.110Z,11.54
2022-09-27T08:53:56.492Z,11.50
2022-09-27T08:54:56.521Z,11.51
2022-09-27T08:55:56.479Z,11.44
2022-09-27T08:56:56.470Z,11.36
2022-09-27T08:57:56.440Z,11.40
2022-09-27T08:58:56.459Z,11.47
2022-09-27T08:59:56.432Z,11.57
2022-09-27T09:00:56.438Z,11.70
2022-09-27T09:01:59.676Z,11.84
2022-09-27T09:02:56.389Z,12.03
2022-09-27T09:03:56.372Z,12.20
2022-09-27T09:04:56.368Z,12.40
2022-09-27T09:05:56.371Z,12.54
2022-09-27T09:06:56.341Z,12.57
2022-09-27T09:07:56.354Z,12.67
2022-09-27T09:08:56.320Z,12.78
2022-09-27T09:10:03.346Z,12.76
2022-09-27T09:10:56.456Z,12.80
2022-09-27T09:11:56.276Z,12.83
2022-09-27T09:12:56.265Z,12.85
2022-09-27T09:13:56.285Z,12.86
2022-09-27T09:14:56.246Z,12.98
2022-09-27T09:15:56.239Z,13.18
2022-09-27T09:16:56.226Z,13.38
2022-09-27T09:17:56.215Z,13.65
2022-09-27T09:18:56.210Z,13.83
2022-09-27T09:19:56.207Z,13.85
2022-09-27T09:20:56.186Z,13.95
2022-09-27T09:21:56.166Z,14.03
2022-09-27T09:22:56.166Z,14.22
2022-09-27T09:23:56.146Z,14.62
2022-09-27T09:24:56.127Z,15.00
2022-09-27T09:25:56.137Z,15.24
2022-09-27T09:26:57.691Z,15.31
2022-09-27T09:28:01.465Z,15.44
2022-09-27T09:28:57.097Z,15.58
2022-09-27T09:29:56.078Z,15.77
2022-09-27T09:30:56.094Z,15.79
2022-09-27T09:31:56.103Z,15.70
2022-09-27T09:32:56.047Z,15.70
2022-09-27T09:33:56.018Z,15.68
2022-09-27T09:34:56.020Z,15.52
2022-09-27T09:35:56.008Z,15.39
2022-09-27T09:36:56.020Z,15.24
2022-09-27T09:37:55.978Z,15.11
2022-09-27T09:38:55.970Z,14.94
2022-09-27T09:39:55.966Z,14.92
2022-09-27T09:40:55.963Z,14.85
2022-09-27T09:41:55.936Z,14.82
2022-09-27T09:42:55.949Z,14.81
2022-09-27T09:43:55.911Z,14.68
2022-09-27T09:44:55.922Z,14.59
2022-09-27T09:45:55.906Z,14.23
2022-09-27T09:46:55.881Z,14.04
2022-09-27T09:47:55.869Z,13.97
2022-09-27T09:48:55.879Z,13.99
2022-09-27T09:49:55.840Z,13.99
2022-09-27T09:50:55.841Z,13.99
2022-09-27T09:51:55.824Z,14.04
2022-09-27T09:52:55.810Z,14.04
2022-09-27T09:53:55.790Z,14.05
2022-09-27T09:54:55.809Z,14.07
2022-09-27T09:55:55.781Z,14.03
2022-09-27T09:56:55.764Z,13.93
2022-09-27T09:57:55.755Z,13.83
2022-09-27T09:58:55.741Z,13.65
2022-09-27T09:59:55.729Z,13.49
2022-09-27T10:00:55.775Z,13.44
2022-09-27T10:01:55.749Z,13.38
2022-09-27T10:02:55.700Z,13.38
2022-09-27T10:03:55.682Z,13.28
2022-09-27T10:04:55.674Z,13.25
2022-09-27T10:05:55.652Z,13.28
2022-09-27T10:06:55.660Z,13.33
2022-09-27T10:07:55.632Z,13.38
2022-09-27T10:08:55.623Z,13.39
2022-09-27T10:09:55.612Z,13.47
2022-09-27T10:10:55.604Z,13.60
2022-09-27T10:11:55.611Z,13.70
2022-09-27T10:12:55.572Z,13.81
2022-09-27T10:13:55.562Z,13.87
2022-09-27T10:14:55.561Z,13.90
2022-09-27T10:15:55.545Z,13.79
2022-09-27T10:16:55.532Z,13.68
2022-09-27T10:17:55.551Z,13.70
2022-09-27T10:18:55.513Z,13.75
2022-09-27T10:19:55.497Z,13.79
2022-09-27T10:20:55.495Z,13.83
2022-09-27T10:21:55.471Z,13.85
2022-09-27T10:22:55.462Z,13.86
2022-09-27T10:23:55.504Z,13.87
2022-09-27T10:24:55.442Z,13.95
2022-09-27T10:25:55.434Z,13.99
2022-09-27T10:26:55.414Z,14.05
2022-09-27T10:27:55.442Z,14.08
2022-09-27T10:28:55.393Z,14.11
2022-09-27T10:29:55.434Z,14.14
2022-09-27T10:30:55.373Z,14.15
2022-09-27T10:31:55.403Z,14.14
2022-09-27T10:32:55.360Z,14.17
2022-09-27T10:33:55.333Z,14.14
2022-09-27T10:34:55.324Z,14.12
2022-09-27T10:35:55.332Z,14.12
2022-09-27T10:36:55.314Z,14.17
2022-09-27T10:37:55.297Z,14.29
2022-09-27T10:38:55.281Z,14.37
2022-09-27T10:39:55.264Z,14.43
2022-09-27T10:40:55.355Z,14.37
2022-09-27T10:41:55.243Z,14.40
2022-09-27T10:42:55.233Z,14.45
2022-09-27T10:43:55.223Z,14.51
2022-09-27T10:44:55.213Z,14.55
2022-09-27T10:45:55.237Z,14.62
2022-09-27T10:46:55.236Z,14.59
2022-09-27T10:47:55.176Z,14.54
2022-09-27T10:48:55.174Z,14.53
2022-09-27T10:49:55.164Z,14.51
2022-09-27T10:50:58.712Z,14.51
2022-09-27T10:51:55.128Z,14.41
2022-09-27T10:52:55.244Z,14.41
2022-09-27T10:53:55.104Z,14.43
2022-09-27T10:54:55.094Z,14.51
2022-09-27T10:55:55.084Z,14.60
2022-09-27T10:56:55.067Z,14.62
2022-09-27T10:57:55.068Z,14.63
2022-09-27T10:58:55.235Z,14.66
2022-09-27T10:59:55.043Z,14.70
2022-09-27T11:00:55.060Z,14.81
2022-09-27T11:01:55.015Z,14.81
2022-09-27T11:02:55.007Z,14.81
2022-09-27T11:03:54.996Z,14.84
2022-09-27T11:04:55.054Z,14.88
2022-09-27T11:05:54.966Z,14.99
2022-09-27T11:06:54.955Z,15.09
2022-09-27T11:07:54.946Z,15.15
2022-09-27T11:08:54.939Z,15.25
2022-09-27T11:09:54.916Z,15.19
2022-09-27T11:10:54.926Z,15.17
2022-09-27T11:11:54.897Z,15.24
2022-09-27T11:12:54.886Z,15.37
2022-09-27T11:13:54.880Z,15.54
2022-09-27T11:14:54.858Z,15.62
2022-09-27T11:15:54.911Z,15.72
2022-09-27T11:16:54.848Z,15.67
2022-09-27T11:17:54.827Z,15.82
2022-09-27T11:18:54.817Z,15.94
2022-09-27T11:19:54.807Z,16.01
2022-09-27T11:20:54.796Z,16.10
2022-09-27T11:21:54.807Z,16.20
2022-09-27T11:22:54.767Z,16.28
2022-09-27T11:23:54.765Z,16.21
2022-09-27T11:24:54.749Z,16.21
2022-09-27T11:25:54.738Z,16.15
2022-09-27T11:26:54.734Z,16.05
2022-09-27T11:27:54.738Z,15.92
2022-09-27T11:28:54.699Z,15.75
2022-09-27T11:29:54.696Z,15.52
2022-09-27T11:30:54.688Z,15.42
2022-09-27T11:31:54.714Z,15.37
2022-09-27T11:32:54.658Z,15.25
2022-09-27T11:33:54.698Z,15.17
2022-09-27T11:34:54.643Z,15.07
2022-09-27T11:35:54.639Z,14.99
2022-09-27T11:36:54.846Z,14.86
2022-09-27T11:37:54.611Z,14.85
2022-09-27T11:38:55.758Z,14.81
2022-09-27T11:39:54.608Z,14.89
2022-09-27T11:40:54.607Z,14.84
2022-09-27T11:41:54.561Z,14.91
2022-09-27T11:42:54.540Z,14.97
2022-09-27T11:43:54.540Z,15.00
2022-09-27T11:45:19.536Z,15.07
2022-09-27T11:46:15.419Z,15.10
2022-09-27T11:46:55.553Z,15.11
2022-09-27T11:47:54.642Z,15.22
2022-09-27T11:48:54.471Z,15.33
2022-09-27T11:49:54.471Z,15.42
2022-09-27T11:50:54.452Z,15.57
2022-09-27T11:51:54.463Z,15.57
2022-09-27T11:52:54.430Z,15.57
2022-09-27T11:53:54.559Z,15.57
2022-09-27T11:54:54.412Z,15.55
2022-09-27T11:55:54.401Z,15.54
2022-09-27T11:56:54.412Z,15.49
2022-09-27T11:57:54.384Z,15.44
2022-09-27T11:58:54.375Z,15.46
2022-09-27T11:59:54.364Z,15.42
2022-09-27T12:00:54.341Z,15.31
2022-09-27T12:01:54.368Z,15.28
2022-09-27T12:02:54.465Z,15.24
2022-09-27T12:03:54.321Z,15.06
2022-09-27T12:04:54.301Z,14.77
2022-09-27T12:05:58.129Z,14.63
2022-09-27T12:06:54.274Z,14.54
2022-09-27T12:07:54.272Z,14.48
2022-09-27T12:08:54.272Z,14.40
2022-09-27T12:09:54.244Z,14.26
2022-09-27T12:10:54.233Z,14.22
2022-09-27T12:11:54.220Z,14.23
2022-09-27T12:12:54.204Z,14.26
2022-09-27T12:13:54.206Z,14.23
2022-09-27T12:14:54.212Z,14.22
2022-09-27T12:15:54.228Z,14.22
2022-09-27T12:16:54.161Z,14.33
2022-09-27T12:17:54.153Z,14.25
2022-09-27T12:18:54.143Z,14.30
2022-09-27T12:19:54.137Z,14.45
2022-09-27T12:20:54.135Z,14.55
2022-09-27T12:21:54.103Z,14.59
2022-09-27T12:22:59.176Z,14.48
2022-09-27T12:23:55.084Z,14.59
2022-09-27T12:24:54.074Z,14.55
2022-09-27T12:25:54.083Z,14.47
2022-09-27T12:26:54.049Z,14.48
2022-09-27T12:27:54.039Z,14.48
2022-09-27T12:28:54.023Z,14.45
2022-09-27T12:29:54.022Z,14.50
2022-09-27T12:31:10.817Z,14.44
2022-09-27T12:31:55.032Z,14.45
2022-09-27T12:32:53.974Z,14.54
2022-09-27T12:33:53.977Z,14.58
2022-09-27T12:34:53.955Z,14.54
2022-09-27T12:35:53.953Z,14.63
2022-09-27T12:36:53.925Z,14.70
2022-09-27T12:37:53.949Z,14.79
2022-09-27T12:38:53.905Z,14.91
2022-09-27T12:39:53.896Z,15.02
2022-09-27T12:40:53.926Z,15.15
2022-09-27T12:41:53.895Z,15.25
2022-09-27T12:42:53.860Z,15.35
2022-09-27T12:43:53.888Z,15.35
2022-09-27T12:44:53.836Z,15.37
2022-09-27T12:45:53.827Z,15.47
2022-09-27T12:46:53.905Z,15.47
2022-09-27T12:47:53.805Z,15.58
2022-09-27T12:48:53.800Z,15.67
2022-09-27T12:49:56.463Z,15.59
2022-09-27T12:50:54.766Z,15.67
2022-09-27T12:51:53.757Z,15.79
2022-09-27T12:52:53.746Z,15.84
2022-09-27T12:53:53.740Z,15.76
2022-09-27T12:54:53.748Z,15.65
2022-09-27T12:55:53.719Z,15.68
2022-09-27T12:56:53.696Z,15.70
2022-09-27T12:57:53.688Z,15.82